Página principal
METAR-TAF:

METAR-TAF

Aeroportos :

Rasht, Irão

latitude: 37-12N, longitude: 049-38E, altura: -7 m

Observação actual do tempo

O boletim foi feito há 29 minutos, às 13:00 UTC
Vento calmo
Temperatura 13°C
Humidade 82%
Pressão 1022 hPa
Visibilidade: 6000 m
Nuvens dispersasa uma altura de 2500 ft
Nuvens dispersasa uma altura de 8000 ft

METAR: OIGG 161300Z 00000KT 6000 SCT025 SCT080 13/10 Q1022

Hora: 16:59 (13:29 UTC)


TAF: em falta

Observações e previsões do tempo de mais de 4000 aeroportos (mensagens METAR e TAF).

As estações disponíveis são os pontos amarelos e vermelhos sobre o mapa.

Mova o rato sobre o mapa para ver o nome da estação.

Depois clique no ponto para visualizar as observações e previsões meteorológicas.

Para alterar o mapa : clique nos botões verdes com uma cruz preta para aumentar o zoom; no botão verde com uma pitada de zoom; ou nas setas verdes para mapas adjacentes.


METAR-TAF: